ADDS METAR Data INFO
IDs: Format: Raw Decoded Include TAF

Data at: 0115 UTC 21 Oct 2017

KAIB 210035Z AUTO 20015G24KT 10SM SCT120 20/M06 A2969 RMK AO2
KAIB 202355Z AUTO 21022G32KT 10SM SCT110 20/M05 A2971 RMK AO2
KAIB 202335Z AUTO 22019G29KT 10SM BKN110 20/M06 A2972 RMK AO2
KAIB 202315Z AUTO 21016G26KT 10SM SCT110 21/M06 A2973 RMK AO2
KAIB 202215Z AUTO 22021G28KT 10SM SCT100 21/M06 A2975 RMK AO2
KAIB 202155Z AUTO 20016G26KT 10SM SCT100 21/M06 A2976 RMK AO2
KAIB 202135Z AUTO 22017G31KT 10SM CLR 22/M06 A2976 RMK AO2
KAIB 202115Z AUTO 22020G29KT 10SM SCT100 22/M06 A2978 RMK AO2
KAIB 202055Z AUTO 20021G28KT 10SM SCT090 22/M05 A2978 RMK AO2
KAIB 202015Z AUTO 19018G24KT 10SM SCT090 21/M03 A2980 RMK AO2
KAIB 201955Z AUTO 21019G30KT 10SM SCT090 SCT110 21/M03 A2983 RMK AO2
KAIB 201915Z AUTO 22021G33KT 10SM CLR 21/M02 A2987 RMK AO2
KAIB 201855Z AUTO 23019G31KT 10SM SCT075 21/M01 A2988 RMK AO2
KAIB 201815Z AUTO 20020G28KT 10SM SCT075 20/00 A2989 RMK AO2
KAIB 201715Z AUTO 22020G27KT 10SM CLR 20/00 A2988 RMK AO2
KAIB 201655Z AUTO 22017G24KT 10SM SCT070 19/00 A2989 RMK AO2
KAIB 201635Z AUTO 20016G23KT 10SM CLR 18/00 A2990 RMK AO2
KAIB 201615Z AUTO 20014G18KT 10SM CLR 18/00 A2990 RMK AO2
KAIB 201535Z AUTO 18014G22KT 10SM CLR 17/00 A2991 RMK AO2
KAIB 201515Z AUTO 17010KT 10SM CLR 16/00 A2994 RMK AO2
KAIB 201435Z AUTO 15003KT 10SM CLR 15/00 A2995 RMK AO2
KAIB 201355Z AUTO 15004KT 10SM CLR 12/00 A2994 RMK AO2
KAIB 201335Z AUTO 13007KT 10SM CLR 10/00 A2994 RMK AO2
KAIB 201315Z AUTO 14003KT 10SM CLR 10/00 A2995 RMK AO2
KAIB 201255Z AUTO 10003KT 10SM CLR 13/00 A2994 RMK AO2
KAIB 201235Z AUTO 00000KT 10SM CLR 11/00 A2994 RMK AO2
KAIB 201215Z AUTO 19004KT 10SM CLR 14/00 A2994 RMK AO2
KAIB 201155Z AUTO 19003KT 10SM SCT120 13/00 A2994 RMK AO2
KAIB 201135Z AUTO 18004KT 10SM SCT120 14/00 A2995 RMK AO2
KAIB 201115Z AUTO 18005KT 10SM BKN120 13/00 A2995 RMK AO2
KAIB 201035Z AUTO 10003KT 10SM SCT120 14/00 A2995 RMK AO2
KAIB 200935Z AUTO 09006KT 10SM OVC100 15/00 A2997 RMK AO2
KAIB 200915Z AUTO 10005KT 10SM OVC100 13/00 A2998 RMK AO2
KAIB 200855Z AUTO 12005KT 10SM OVC100 14/00 A3000 RMK AO2
KAIB 200835Z AUTO 10006KT 10SM OVC100 13/00 A3000 RMK AO2
KAIB 200815Z AUTO 12005KT 10SM OVC100 13/M01 A3001 RMK AO2
KAIB 200755Z AUTO 11007KT 10SM BKN100 BKN120 13/M01 A3001 RMK AO2
KAIB 200735Z AUTO 10009KT 10SM SCT120 12/M01 A3002 RMK AO2
KAIB 200715Z AUTO 19003KT 10SM SCT110 12/M01 A3002 RMK AO2
KAIB 200655Z AUTO 11004KT 10SM SCT110 14/M01 A3002 RMK AO2
KAIB 200635Z AUTO 19003KT 10SM SCT110 13/M01 A3002 RMK AO2
KAIB 200615Z AUTO 09007KT 10SM SCT110 13/M01 A3003 RMK AO2
KAIB 200555Z AUTO 13003KT 10SM SCT090 SCT110 16/M01 A3004 RMK AO2
KAIB 200535Z AUTO 18006KT 10SM BKN090 BKN110 16/M01 A3004 RMK AO2
KAIB 200515Z AUTO 14003KT 10SM OVC100 17/M01 A3004 RMK AO2
KAIB 200455Z AUTO 19006KT 10SM BKN100 17/M01 A3004 RMK AO2
KAIB 200435Z AUTO 20003KT 10SM SCT100 SCT120 17/M01 A3005 RMK AO2
KAIB 200415Z AUTO 16006KT 10SM SCT100 SCT120 17/M01 A3005 RMK AO2
KAIB 200355Z AUTO 13003KT 10SM SCT100 BKN120 15/M01 A3005 RMK AO2
KAIB 200335Z AUTO 11005KT 10SM SCT100 BKN120 15/M01 A3005 RMK AO2
KAIB 200315Z AUTO 10006KT 10SM SCT120 14/M01 A3005 RMK AO2
KAIB 200255Z AUTO 13003KT 10SM BKN120 15/M01 A3005 RMK AO2
KAIB 200235Z AUTO 11006KT 10SM SCT060 SCT070 BKN120 16/M01 A3004 RMK AO2
KAIB 200215Z AUTO 12008KT 10SM -RA SCT060 SCT070 OVC110 16/00 A3004 RMK AO2
KAIB 200155Z AUTO 12005KT 10SM OVC110 17/M01 A3004 RMK AO2
KAIB 200135Z AUTO 00000KT 10SM OVC120 18/M01 A3005 RMK AO2
KAIB 200115Z AUTO 00000KT 10SM OVC110 18/M01 A3004 RMK AO2
KAIB 200055Z AUTO 00000KT 10SM OVC110 18/M01 A3004 RMK AO2
KAIB 200035Z AUTO 27003KT 10SM OVC110 18/M01 A3004 RMK AO2
KAIB 192355Z AUTO 25006KT 10SM OVC110 19/M02 A3005 RMK AO2
KAIB 192335Z AUTO 25003KT 10SM BKN110 20/M02 A3005 RMK AO2
KAIB 192315Z AUTO 25005KT 10SM SCT100 BKN120 20/M02 A3006 RMK AO2
KAIB 192255Z AUTO 22009KT 10SM SCT100 BKN120 21/M02 A3006 RMK AO2
KAIB 192235Z AUTO 22010KT 10SM SCT120 21/M03 A3007 RMK AO2
KAIB 192155Z AUTO 26012G16KT 10SM CLR 22/M03 A3007 RMK AO2
KAIB 192135Z AUTO 27015G19KT 10SM CLR 22/M03 A3006 RMK AO2
KAIB 192055Z AUTO 33009KT 10SM CLR 22/M07 A3007 RMK AO2
KAIB 192035Z AUTO 32007KT 10SM CLR 21/M07 A3008 RMK AO2
KAIB 191935Z AUTO 33009KT 10SM SCT120 19/M08 A3011 RMK AO2
KAIB 191915Z AUTO 33007KT 10SM SCT110 19/M08 A3012 RMK AO2
KAIB 191855Z AUTO 33007KT 10SM BKN110 21/M08 A3014 RMK AO2
KAIB 191815Z AUTO 33003KT 10SM CLR 18/M08 A3016 RMK AO2
KAIB 191755Z AUTO 00000KT 10SM CLR 18/M08 A3016 RMK AO2 LTG DSNT S
KAIB 191735Z AUTO 00000KT 10SM CLR 17/M08 A3017 RMK AO2
KAIB 191655Z AUTO 27003KT 10SM CLR 13/M08 A3018 RMK AO2
KAIB 191635Z AUTO 33003KT 10SM SCT095 13/M07 A3019 RMK AO2
KAIB 191555Z AUTO 00000KT 10SM BKN095 10/M10 A3020 RMK AO2
KAIB 191535Z AUTO 24004KT 10SM SCT095 08/M08 A3021 RMK AO2
KAIB 191515Z AUTO 15003KT 10SM SCT100 08/M09 A3020 RMK AO2
KAIB 191455Z AUTO 13004KT 10SM SCT100 07/M08 A3020 RMK AO2
KAIB 191355Z AUTO 00000KT 10SM CLR 05/M10 A3019 RMK AO2